Time;durP1;ratioP1;P1;durP2;ratioP2;P2;SDS_P1;SDS_P2;PMS_P1;PMS_P2;Temp;Humidity;BMP_temperature;BMP_pressure;BME280_temperature;BME280_humidity;BME280_pressure;Samples;Min_cycle;Max_cycle;Signal;HPM_P1;HPM_P2
2023/03/09 00:01:44;;;;;;;23.38;9.38;;;;;;;;;;6301856;22;20040;-78
2023/03/09 00:04:12;;;;;;;25.75;10.48;;;;;;;;;;6274084;22;20038;-79
2023/03/09 00:06:39;;;;;;;24.83;10.63;;;;;;;;;;6274423;22;20111;-80
2023/03/09 00:09:05;;;;;;;25.20;10.00;;;;;;;;;;6301370;22;20027;-79
2023/03/09 00:11:33;;;;;;;24.58;11.15;;;;;;;;;;6302334;22;20759;-78
2023/03/09 00:14:00;;;;;;;23.65;10.13;;;;;;;;;;6298618;22;20074;-78
2023/03/09 00:16:27;;;;;;;24.33;9.95;;;;;;;;;;6299876;22;20032;-78
2023/03/09 00:18:56;;;;;;;30.50;11.70;;;;;;;;;;6273113;22;20107;-79
2023/03/09 00:21:34;;;;;;;28.00;11.10;;;;;;;;;;6272460;22;20024;-78
2023/03/09 00:24:01;;;;;;;24.48;10.25;;;;;;;;;;6299939;22;20047;-78
2023/03/09 00:26:28;;;;;;;24.73;10.13;;;;;;;;;;6300758;22;20905;-79
2023/03/09 00:28:54;;;;;;;25.42;10.80;;;;;;;;;;6299564;22;20055;-78
2023/03/09 00:31:21;;;;;;;20.70;9.63;;;;;;;;;;6300956;22;20951;-80
2023/03/09 00:33:48;;;;;;;22.20;10.18;;;;;;;;;;6298838;22;20074;-79
2023/03/09 00:36:15;;;;;;;24.17;10.13;;;;;;;;;;6300084;22;20113;-79
2023/03/09 00:38:41;;;;;;;24.15;10.38;;;;;;;;;;6299856;22;20055;-79
2023/03/09 00:41:07;;;;;;;25.88;10.75;;;;;;;;;;6298930;22;20062;-79
2023/03/09 00:43:34;;;;;;;23.05;10.50;;;;;;;;;;6298251;22;20067;-80
2023/03/09 00:46:01;;;;;;;20.55;9.50;;;;;;;;;;6300540;22;20032;-78
2023/03/09 00:48:27;;;;;;;24.83;10.10;;;;;;;;;;6272355;22;20062;-79
2023/03/09 00:50:53;;;;;;;25.25;9.57;;;;;;;;;;6299390;22;20024;-80
2023/03/09 00:53:20;;;;;;;22.88;9.40;;;;;;;;;;6299501;22;21045;-79
2023/03/09 00:55:46;;;;;;;24.48;9.45;;;;;;;;;;6272129;22;20026;-78
2023/03/09 00:58:12;;;;;;;25.05;9.73;;;;;;;;;;6300052;22;20031;-80
2023/03/09 01:00:38;;;;;;;27.05;10.48;;;;;;;;;;6298608;22;20030;-78
2023/03/09 01:03:05;;;;;;;26.50;10.73;;;;;;;;;;6299412;22;20027;-78
2023/03/09 01:05:31;;;;;;;23.20;10.40;;;;;;;;;;6300443;22;20083;-79
2023/03/09 01:07:58;;;;;;;27.73;10.50;;;;;;;;;;6299707;22;20111;-78
2023/03/09 01:10:24;;;;;;;24.33;10.77;;;;;;;;;;6298393;22;20024;-79
2023/03/09 01:12:50;;;;;;;27.70;10.30;;;;;;;;;;6298225;22;20032;-79
2023/03/09 01:15:17;;;;;;;27.05;11.23;;;;;;;;;;6299221;22;20941;-80
2023/03/09 01:17:43;;;;;;;25.67;10.82;;;;;;;;;;6298681;22;20095;-78
2023/03/09 01:20:10;;;;;;;26.05;10.57;;;;;;;;;;6299420;22;20034;-79
2023/03/09 01:22:37;;;;;;;23.60;9.82;;;;;;;;;;6300651;22;20023;-79
2023/03/09 01:25:03;;;;;;;26.08;10.27;;;;;;;;;;6298492;22;20039;-81
2023/03/09 01:27:29;;;;;;;26.73;10.55;;;;;;;;;;6299897;22;20020;-80
2023/03/09 01:29:59;;;;;;;25.20;10.65;;;;;;;;;;6300660;22;20183;-80
2023/03/09 01:32:25;;;;;;;25.85;10.52;;;;;;;;;;6299249;22;20031;-80
2023/03/09 01:34:52;;;;;;;24.85;9.73;;;;;;;;;;6298061;22;21042;-79
2023/03/09 01:37:19;;;;;;;28.02;10.63;;;;;;;;;;6301275;22;20016;-79
2023/03/09 01:39:45;;;;;;;25.35;10.63;;;;;;;;;;6298975;22;20574;-80
2023/03/09 01:42:11;;;;;;;25.77;10.70;;;;;;;;;;6299062;22;20023;-79
2023/03/09 01:44:38;;;;;;;25.13;9.73;;;;;;;;;;6297583;22;20090;-79
2023/03/09 01:47:04;;;;;;;22.98;10.50;;;;;;;;;;6271185;22;20475;-78
2023/03/09 01:49:41;;;;;;;25.42;11.20;;;;;;;;;;6300036;22;20034;-80
2023/03/09 01:52:16;;;;;;;24.90;9.77;;;;;;;;;;6299858;22;20031;-79
2023/03/09 01:54:45;;;;;;;24.25;10.07;;;;;;;;;;6297638;22;20906;-78
2023/03/09 01:57:17;;;;;;;24.65;10.35;;;;;;;;;;6271419;22;20122;-79
2023/03/09 01:59:44;;;;;;;25.02;11.13;;;;;;;;;;6299360;22;20058;-80
2023/03/09 02:02:11;;;;;;;26.85;11.43;;;;;;;;;;6299185;22;20126;-79
2023/03/09 02:04:42;;;;;;;28.77;10.55;;;;;;;;;;6297766;22;20106;-78
2023/03/09 02:07:09;;;;;;;25.50;10.15;;;;;;;;;;6271724;22;20984;-77
2023/03/09 02:09:50;;;;;;;26.40;11.40;;;;;;;;;;6299118;22;20135;-78
2023/03/09 02:12:18;;;;;;;23.75;10.23;;;;;;;;;;6299094;22;20114;-80
2023/03/09 02:14:45;;;;;;;26.40;11.10;;;;;;;;;;6299474;22;20062;-80
2023/03/09 02:17:12;;;;;;;24.63;10.57;;;;;;;;;;6300213;22;20035;-79
2023/03/09 02:19:38;;;;;;;30.45;10.85;;;;;;;;;;6274000;22;20043;-78
2023/03/09 02:22:04;;;;;;;29.88;10.88;;;;;;;;;;6301129;22;20066;-80
2023/03/09 02:24:40;;;;;;;27.17;11.38;;;;;;;;;;6300539;22;20148;-79
2023/03/09 02:27:23;;;;;;;28.08;11.82;;;;;;;;;;6299947;22;20103;-80
2023/03/09 02:29:49;;;;;;;27.00;11.40;;;;;;;;;;6301402;22;20081;-80
2023/03/09 02:32:16;;;;;;;24.42;11.18;;;;;;;;;;6301894;22;20106;-79
2023/03/09 02:34:43;;;;;;;27.85;11.02;;;;;;;;;;6301889;22;20145;-80
2023/03/09 02:37:36;;;;;;;28.33;10.95;;;;;;;;;;6275059;22;20023;-78
2023/03/09 02:40:10;;;;;;;32.05;10.85;;;;;;;;;;6296392;22;20023;-80
2023/03/09 02:42:37;;;;;;;24.85;10.25;;;;;;;;;;6300326;22;20027;-80
2023/03/09 02:45:05;;;;;;;28.80;10.43;;;;;;;;;;6300222;22;20035;-79
2023/03/09 02:47:31;;;;;;;27.67;11.00;;;;;;;;;;6300749;22;20023;-80
2023/03/09 02:49:58;;;;;;;27.15;10.77;;;;;;;;;;6300438;22;20051;-78
2023/03/09 02:52:24;;;;;;;27.90;11.15;;;;;;;;;;6301540;22;20020;-79
2023/03/09 02:54:51;;;;;;;25.95;10.85;;;;;;;;;;6299498;22;20142;-80
2023/03/09 02:57:17;;;;;;;30.65;11.23;;;;;;;;;;6301576;22;20028;-79
2023/03/09 02:59:43;;;;;;;28.73;10.85;;;;;;;;;;6301301;22;20579;-79
2023/03/09 03:02:10;;;;;;;27.52;10.90;;;;;;;;;;6273191;22;20031;-80
2023/03/09 03:04:36;;;;;;;28.75;11.35;;;;;;;;;;6300472;22;20443;-80
2023/03/09 03:07:03;;;;;;;25.75;11.43;;;;;;;;;;6302141;22;20026;-80
2023/03/09 03:09:30;;;;;;;25.40;10.55;;;;;;;;;;6301717;22;20055;-79
2023/03/09 03:11:57;;;;;;;27.63;11.40;;;;;;;;;;6272864;22;20050;-80
2023/03/09 03:14:23;;;;;;;29.73;10.77;;;;;;;;;;6298536;22;20185;-78
2023/03/09 03:16:49;;;;;;;28.67;11.38;;;;;;;;;;6299813;22;20020;-80
2023/03/09 03:19:16;;;;;;;31.88;10.70;;;;;;;;;;6299862;22;20055;-79
2023/03/09 03:21:42;;;;;;;27.73;11.02;;;;;;;;;;6298432;22;20103;-79
2023/03/09 03:24:08;;;;;;;28.90;10.98;;;;;;;;;;6296644;22;20807;-79
2023/03/09 03:26:35;;;;;;;28.80;11.18;;;;;;;;;;6301451;22;20106;-80
2023/03/09 03:29:02;;;;;;;27.88;11.25;;;;;;;;;;6300888;22;20046;-80
2023/03/09 03:31:28;;;;;;;27.13;10.90;;;;;;;;;;6300955;22;20038;-80
2023/03/09 03:33:55;;;;;;;24.80;10.45;;;;;;;;;;6299998;22;20034;-79
2023/03/09 03:36:21;;;;;;;28.25;11.40;;;;;;;;;;6272043;22;20028;-79
2023/03/09 03:38:47;;;;;;;33.17;12.32;;;;;;;;;;6300782;22;20118;-80
2023/03/09 03:41:14;;;;;;;25.52;10.52;;;;;;;;;;6300976;22;20091;-80
2023/03/09 03:43:40;;;;;;;25.85;10.73;;;;;;;;;;6298564;22;20081;-80
2023/03/09 03:46:06;;;;;;;31.35;11.80;;;;;;;;;;6300043;22;20028;-79
2023/03/09 03:48:33;;;;;;;27.65;10.70;;;;;;;;;;6301489;22;20115;-79
2023/03/09 03:50:59;;;;;;;27.25;11.25;;;;;;;;;;6299991;22;20032;-80
2023/03/09 03:53:26;;;;;;;29.17;12.18;;;;;;;;;;6299593;22;20898;-80
2023/03/09 03:55:52;;;;;;;26.67;11.43;;;;;;;;;;6300763;22;20098;-80
2023/03/09 03:58:19;;;;;;;26.42;10.98;;;;;;;;;;6299121;22;20103;-79
2023/03/09 04:00:45;;;;;;;27.67;11.15;;;;;;;;;;6272469;22;20448;-80
2023/03/09 04:03:11;;;;;;;24.98;10.30;;;;;;;;;;6298754;22;20024;-80
2023/03/09 04:05:38;;;;;;;30.88;11.30;;;;;;;;;;6299294;22;20028;-80
2023/03/09 04:08:04;;;;;;;26.55;9.65;;;;;;;;;;6298735;22;20020;-80
2023/03/09 04:10:31;;;;;;;28.35;11.48;;;;;;;;;;6299137;22;20111;-80
2023/03/09 04:12:57;;;;;;;26.08;10.82;;;;;;;;;;6297368;22;20019;-79
2023/03/09 04:15:24;;;;;;;26.45;10.68;;;;;;;;;;6297620;22;20058;-80
2023/03/09 04:17:51;;;;;;;26.23;10.38;;;;;;;;;;6297769;22;20028;-80
2023/03/09 04:20:17;;;;;;;27.92;11.50;;;;;;;;;;6271033;22;20034;-79
2023/03/09 04:22:44;;;;;;;24.17;10.50;;;;;;;;;;6271181;22;20023;-79
2023/03/09 04:25:10;;;;;;;28.25;10.77;;;;;;;;;;6298288;22;21309;-80
2023/03/09 04:27:36;;;;;;;26.45;11.13;;;;;;;;;;6298928;22;20034;-80
2023/03/09 04:30:03;;;;;;;28.90;11.23;;;;;;;;;;6299440;22;20026;-81
2023/03/09 04:32:30;;;;;;;31.73;11.70;;;;;;;;;;6299590;22;20026;-80
2023/03/09 04:34:56;;;;;;;28.10;10.98;;;;;;;;;;6297147;22;20032;-80
2023/03/09 04:37:23;;;;;;;28.45;11.57;;;;;;;;;;6298635;22;20143;-80
2023/03/09 04:39:49;;;;;;;31.50;12.32;;;;;;;;;;6298149;22;20467;-80
2023/03/09 04:42:15;;;;;;;26.58;11.13;;;;;;;;;;6297646;22;20047;-79
2023/03/09 04:44:42;;;;;;;30.58;12.27;;;;;;;;;;6297987;22;20051;-79
2023/03/09 04:47:10;;;;;;;28.70;11.75;;;;;;;;;;6297957;22;20046;-77
2023/03/09 04:49:37;;;;;;;29.40;11.73;;;;;;;;;;6298454;22;20031;-79
2023/03/09 04:52:03;;;;;;;25.00;10.35;;;;;;;;;;6297666;22;20059;-80
2023/03/09 04:54:30;;;;;;;28.73;10.55;;;;;;;;;;6298100;22;20588;-79
2023/03/09 04:56:56;;;;;;;27.17;11.35;;;;;;;;;;6271452;22;20028;-78
2023/03/09 04:59:22;;;;;;;23.58;10.05;;;;;;;;;;6297644;22;20353;-78
2023/03/09 05:01:49;;;;;;;25.40;10.07;;;;;;;;;;6298344;22;20532;-79
2023/03/09 05:04:15;;;;;;;27.25;10.57;;;;;;;;;;6297231;22;20143;-79
2023/03/09 05:06:41;;;;;;;24.10;10.13;;;;;;;;;;6298956;22;20023;-79
2023/03/09 05:09:08;;;;;;;27.65;10.38;;;;;;;;;;6298219;22;20034;-78
2023/03/09 05:11:34;;;;;;;22.17;10.30;;;;;;;;;;6297797;22;20152;-78
2023/03/09 05:14:01;;;;;;;26.70;11.07;;;;;;;;;;6297350;22;20023;-79
2023/03/09 05:16:27;;;;;;;25.45;10.40;;;;;;;;;;6298552;22;20859;-80
2023/03/09 05:18:54;;;;;;;27.33;10.63;;;;;;;;;;6298241;22;20030;-79
2023/03/09 05:21:21;;;;;;;27.17;11.30;;;;;;;;;;6297379;22;20028;-79
2023/03/09 05:23:47;;;;;;;25.70;9.77;;;;;;;;;;6270044;22;20038;-79
2023/03/09 05:26:13;;;;;;;25.08;10.48;;;;;;;;;;6298738;22;20028;-80
2023/03/09 05:28:42;;;;;;;25.65;10.98;;;;;;;;;;6298543;22;20510;-78
2023/03/09 05:31:10;;;;;;;25.70;10.30;;;;;;;;;;6297172;22;20476;-79
2023/03/09 05:33:37;;;;;;;25.65;10.35;;;;;;;;;;6297907;22;20448;-79
2023/03/09 05:36:12;;;;;;;32.47;11.38;;;;;;;;;;6298720;22;20805;-80
2023/03/09 05:38:38;;;;;;;29.10;11.45;;;;;;;;;;6297454;22;21064;-80
2023/03/09 05:41:05;;;;;;;28.05;10.60;;;;;;;;;;6271275;22;20031;-78
2023/03/09 05:43:31;;;;;;;23.98;10.40;;;;;;;;;;6270794;22;20098;-79
2023/03/09 05:45:57;;;;;;;26.65;10.68;;;;;;;;;;6298141;22;21011;-79
2023/03/09 05:48:24;;;;;;;28.10;11.23;;;;;;;;;;6299852;22;20067;-79
2023/03/09 05:50:50;;;;;;;26.67;10.95;;;;;;;;;;6299727;22;20099;-79
2023/03/09 05:53:16;;;;;;;25.58;10.70;;;;;;;;;;6299123;22;20396;-80
2023/03/09 05:55:43;;;;;;;31.27;11.80;;;;;;;;;;6300956;22;20031;-79
2023/03/09 05:58:09;;;;;;;27.83;10.80;;;;;;;;;;6300121;22;20046;-79
2023/03/09 06:00:35;;;;;;;30.58;11.90;;;;;;;;;;6300940;22;20024;-79
2023/03/09 06:03:02;;;;;;;31.27;11.48;;;;;;;;;;6297938;22;20103;-80
2023/03/09 06:05:28;;;;;;;25.63;10.75;;;;;;;;;;6273387;22;20035;-79
2023/03/09 06:07:55;;;;;;;30.98;11.75;;;;;;;;;;6299271;22;20074;-79
2023/03/09 06:10:21;;;;;;;28.77;12.60;;;;;;;;;;6299179;22;20032;-78
2023/03/09 06:12:48;;;;;;;29.02;12.15;;;;;;;;;;6298537;22;20055;-79
2023/03/09 06:15:14;;;;;;;28.17;12.35;;;;;;;;;;6297473;22;20047;-80
2023/03/09 06:17:40;;;;;;;29.23;11.35;;;;;;;;;;6299525;22;20059;-80
2023/03/09 06:20:07;;;;;;;30.48;12.07;;;;;;;;;;6299181;22;20207;-78
2023/03/09 06:22:34;;;;;;;26.70;11.15;;;;;;;;;;6299636;22;20103;-79
2023/03/09 06:25:00;;;;;;;28.70;11.85;;;;;;;;;;6298140;22;20024;-79
2023/03/09 06:27:27;;;;;;;29.42;12.32;;;;;;;;;;6298924;22;20106;-80
2023/03/09 06:29:54;;;;;;;29.08;11.52;;;;;;;;;;6298953;22;20024;-80
2023/03/09 06:32:21;;;;;;;29.10;11.68;;;;;;;;;;6299935;22;20020;-79
2023/03/09 06:34:47;;;;;;;29.58;11.63;;;;;;;;;;6298618;22;20082;-80
2023/03/09 06:37:13;;;;;;;32.10;12.82;;;;;;;;;;6273023;22;20093;-79
2023/03/09 06:39:40;;;;;;;31.33;12.75;;;;;;;;;;6300771;22;20024;-80
2023/03/09 06:42:06;;;;;;;30.00;11.80;;;;;;;;;;6300544;22;20032;-80
2023/03/09 06:44:32;;;;;;;32.20;12.35;;;;;;;;;;6299165;22;20022;-80
2023/03/09 06:46:59;;;;;;;33.83;12.88;;;;;;;;;;6300139;22;20042;-79
2023/03/09 06:49:25;;;;;;;29.00;12.02;;;;;;;;;;6299658;22;20038;-77
2023/03/09 06:51:51;;;;;;;30.50;11.85;;;;;;;;;;6299591;22;20030;-79
2023/03/09 06:54:18;;;;;;;28.40;11.68;;;;;;;;;;6298911;22;20489;-80
2023/03/09 06:56:44;;;;;;;31.33;12.00;;;;;;;;;;6299084;22;20836;-79
2023/03/09 06:59:11;;;;;;;29.75;13.00;;;;;;;;;;6299376;22;20101;-79
2023/03/09 07:01:40;;;;;;;31.95;13.18;;;;;;;;;;6299267;22;20050;-80
2023/03/09 07:04:07;;;;;;;31.70;12.05;;;;;;;;;;6298986;22;20028;-79
2023/03/09 07:06:33;;;;;;;33.80;12.00;;;;;;;;;;6300262;22;20860;-79
2023/03/09 07:09:00;;;;;;;31.40;12.90;;;;;;;;;;6299223;22;20038;-79
2023/03/09 07:11:26;;;;;;;33.25;12.38;;;;;;;;;;6298433;22;20976;-79
2023/03/09 07:13:52;;;;;;;33.65;12.20;;;;;;;;;;6297106;22;20023;-79
2023/03/09 07:16:19;;;;;;;29.05;11.85;;;;;;;;;;6298349;22;20039;-77
2023/03/09 07:18:45;;;;;;;30.83;12.10;;;;;;;;;;6299078;22;20034;-80
2023/03/09 07:21:12;;;;;;;30.27;12.35;;;;;;;;;;6299099;22;20030;-80
2023/03/09 07:23:38;;;;;;;31.35;12.27;;;;;;;;;;6271406;22;20070;-81
2023/03/09 07:26:05;;;;;;;33.45;13.13;;;;;;;;;;6299551;22;20047;-79
2023/03/09 07:28:32;;;;;;;30.33;12.43;;;;;;;;;;6271386;22;20038;-80
2023/03/09 07:30:58;;;;;;;32.45;12.70;;;;;;;;;;6272180;22;20834;-80
2023/03/09 07:33:25;;;;;;;29.60;12.30;;;;;;;;;;6297896;22;20030;-79
2023/03/09 07:35:51;;;;;;;33.80;13.48;;;;;;;;;;6298842;22;20028;-80
2023/03/09 07:38:17;;;;;;;33.05;12.38;;;;;;;;;;6299262;22;20759;-79
2023/03/09 07:40:44;;;;;;;31.80;12.82;;;;;;;;;;6298870;22;20027;-79
2023/03/09 07:43:11;;;;;;;31.35;12.18;;;;;;;;;;6298603;22;20027;-80
2023/03/09 07:45:38;;;;;;;32.15;13.27;;;;;;;;;;6299673;22;20758;-78
2023/03/09 07:48:05;;;;;;;32.53;13.35;;;;;;;;;;6299238;22;20126;-78
2023/03/09 07:50:31;;;;;;;32.92;12.52;;;;;;;;;;6299632;22;20023;-78
2023/03/09 07:52:57;;;;;;;32.95;13.45;;;;;;;;;;6297736;22;20126;-79
2023/03/09 07:55:24;;;;;;;33.17;12.57;;;;;;;;;;6271435;22;21162;-79
2023/03/09 07:57:50;;;;;;;31.60;12.82;;;;;;;;;;6299050;22;20030;-79
2023/03/09 08:00:22;;;;;;;31.13;12.98;;;;;;;;;;6298699;22;20114;-78
2023/03/09 08:02:49;;;;;;;30.15;12.07;;;;;;;;;;6299279;22;20039;-79
2023/03/09 08:05:15;;;;;;;29.92;12.93;;;;;;;;;;6298688;22;20382;-79
2023/03/09 08:07:46;;;;;;;33.17;12.73;;;;;;;;;;6272104;22;20027;-79
2023/03/09 08:10:13;;;;;;;;;;;;;;;;;;6298910;22;20081;-79
2023/03/09 08:12:46;;;;;;;28.58;11.95;;;;;;;;;;6296656;22;45443;-79
2023/03/09 08:15:12;;;;;;;29.42;12.68;;;;;;;;;;6299047;22;20028;-78
2023/03/09 08:17:39;;;;;;;32.28;12.27;;;;;;;;;;6298841;22;20598;-78
2023/03/09 08:20:08;;;;;;;32.83;13.40;;;;;;;;;;6297213;22;20050;-77
2023/03/09 08:22:36;;;;;;;30.88;12.68;;;;;;;;;;6275143;22;20054;-80
2023/03/09 08:25:03;;;;;;;32.25;13.25;;;;;;;;;;6299439;22;20113;-79
2023/03/09 08:27:29;;;;;;;30.75;12.60;;;;;;;;;;6300329;22;20763;-80
2023/03/09 08:29:56;;;;;;;33.03;13.73;;;;;;;;;;6298017;22;20032;-79
2023/03/09 08:32:25;;;;;;;37.38;14.45;;;;;;;;;;6271128;22;20031;-78
2023/03/09 08:34:55;;;;;;;37.05;14.35;;;;;;;;;;6271331;22;20062;-79
2023/03/09 08:37:21;;;;;;;35.63;14.30;;;;;;;;;;6299097;22;20024;-79
2023/03/09 08:39:50;;;;;;;35.28;14.32;;;;;;;;;;6297880;22;20069;-81
2023/03/09 08:42:16;;;;;;;34.05;13.55;;;;;;;;;;6298754;22;20038;-79
2023/03/09 08:44:42;;;;;;;34.10;13.50;;;;;;;;;;6297625;22;20483;-78
2023/03/09 08:47:09;;;;;;;29.17;13.25;;;;;;;;;;6271665;22;20095;-79
2023/03/09 08:49:37;;;;;;;33.17;13.70;;;;;;;;;;6298688;22;20826;-79
2023/03/09 08:52:04;;;;;;;30.60;13.00;;;;;;;;;;6271801;22;21035;-80
2023/03/09 08:54:30;;;;;;;31.55;13.20;;;;;;;;;;6298044;22;20046;-80
2023/03/09 08:56:57;;;;;;;32.03;13.52;;;;;;;;;;6299667;22;20180;-80
2023/03/09 08:59:23;;;;;;;33.60;13.63;;;;;;;;;;6300193;22;20055;-81
2023/03/09 09:01:50;;;;;;;34.00;13.73;;;;;;;;;;6300399;22;20041;-81
2023/03/09 09:04:16;;;;;;;34.38;13.25;;;;;;;;;;6298107;22;20040;-77
2023/03/09 09:06:43;;;;;;;33.17;12.85;;;;;;;;;;6299163;22;20094;-80
2023/03/09 09:09:09;;;;;;;35.63;13.70;;;;;;;;;;6270552;22;20140;-79
2023/03/09 09:11:38;;;;;;;29.70;12.35;;;;;;;;;;6298132;22;20397;-78
2023/03/09 09:14:05;;;;;;;29.85;13.18;;;;;;;;;;6296967;22;20127;-79
2023/03/09 09:16:31;;;;;;;29.02;12.48;;;;;;;;;;6297961;22;20444;-80
2023/03/09 09:18:57;;;;;;;34.50;13.15;;;;;;;;;;6298145;22;20023;-79
2023/03/09 09:21:24;;;;;;;34.10;13.80;;;;;;;;;;6297732;22;20056;-79
2023/03/09 09:23:50;;;;;;;30.38;13.25;;;;;;;;;;6297449;22;20164;-79
2023/03/09 09:26:17;;;;;;;31.92;12.88;;;;;;;;;;6296421;22;20563;-79
2023/03/09 09:28:44;;;;;;;35.65;13.77;;;;;;;;;;6299444;22;20028;-80
2023/03/09 09:31:12;;;;;;;29.90;13.07;;;;;;;;;;6271789;22;20030;-81
2023/03/09 09:33:39;;;;;;;33.03;13.15;;;;;;;;;;6270711;22;20511;-79
2023/03/09 09:36:08;;;;;;;33.30;13.48;;;;;;;;;;6299514;22;20449;-81
2023/03/09 09:38:35;;;;;;;28.70;12.98;;;;;;;;;;6298574;22;20094;-80
2023/03/09 09:41:04;;;;;;;32.83;13.05;;;;;;;;;;6298702;22;20082;-79
2023/03/09 09:43:31;;;;;;;29.17;12.85;;;;;;;;;;6299886;22;20704;-81
2023/03/09 09:45:59;;;;;;;28.90;11.13;;;;;;;;;;6301981;22;20107;-79
2023/03/09 09:48:27;;;;;;;33.50;13.27;;;;;;;;;;6299885;22;20028;-80
2023/03/09 09:51:02;;;;;;;37.03;13.70;;;;;;;;;;6298931;22;20813;-81
2023/03/09 09:53:42;;;;;;;33.45;11.52;;;;;;;;;;6299348;22;20032;-78
2023/03/09 09:56:10;;;;;;;35.22;13.00;;;;;;;;;;6299844;22;20056;-80
2023/03/09 09:58:45;;;;;;;33.55;13.25;;;;;;;;;;6300006;22;20024;-80
2023/03/09 10:01:43;;;;;;;34.65;13.07;;;;;;;;;;6300018;22;20114;-80
2023/03/09 10:04:17;;;;;;;34.92;13.88;;;;;;;;;;6298044;22;20028;-81
2023/03/09 10:06:46;;;;;;;34.97;13.80;;;;;;;;;;6298919;22;21225;-80
2023/03/09 10:09:16;;;;;;;31.55;12.88;;;;;;;;;;6297083;22;20111;-80
2023/03/09 10:11:51;;;;;;;35.45;12.55;;;;;;;;;;6270845;22;20510;-80
2023/03/09 10:14:24;;;;;;;32.22;13.27;;;;;;;;;;6295983;22;20090;-78
2023/03/09 10:16:54;;;;;;;35.42;12.93;;;;;;;;;;6297647;22;20035;-80
2023/03/09 10:19:26;;;;;;;32.83;12.95;;;;;;;;;;6297410;22;20027;-79
2023/03/09 10:21:57;;;;;;;30.65;12.10;;;;;;;;;;6296621;22;20032;-79
2023/03/09 10:24:24;;;;;;;35.83;13.25;;;;;;;;;;6296430;22;20459;-79
2023/03/09 10:26:56;;;;;;;32.08;12.93;;;;;;;;;;6297962;22;20099;-81
2023/03/09 10:29:26;;;;;;;32.78;13.30;;;;;;;;;;6298688;22;20866;-77
2023/03/09 10:31:58;;;;;;;33.15;13.23;;;;;;;;;;6298447;22;20020;-80
2023/03/09 10:34:25;;;;;;;34.50;13.32;;;;;;;;;;6270802;22;20062;-79
2023/03/09 10:37:15;;;;;;;33.90;13.82;;;;;;;;;;6298877;22;20043;-78
2023/03/09 10:39:43;;;;;;;33.78;13.43;;;;;;;;;;6300461;22;20102;-81
2023/03/09 10:42:18;;;;;;;34.15;13.20;;;;;;;;;;6300470;22;20436;-81
2023/03/09 10:44:50;;;;;;;32.45;13.07;;;;;;;;;;6270426;22;20024;-78
2023/03/09 10:47:16;;;;;;;32.47;12.95;;;;;;;;;;6299143;22;20091;-81
2023/03/09 10:50:03;;;;;;;35.80;13.90;;;;;;;;;;6299226;22;20896;-80
2023/03/09 10:52:34;;;;;;;33.22;13.05;;;;;;;;;;6300104;22;20123;-81
2023/03/09 10:55:20;;;;;;;34.38;13.25;;;;;;;;;;6270744;22;20970;-81
2023/03/09 10:57:53;;;;;;;31.00;12.30;;;;;;;;;;6299734;22;20038;-80
2023/03/09 11:00:20;;;;;;;31.88;11.82;;;;;;;;;;6297992;22;20062;-77
2023/03/09 11:02:53;;;;;;;38.03;14.13;;;;;;;;;;6297505;22;20031;-79
2023/03/09 11:05:21;;;;;;;34.90;13.88;;;;;;;;;;6271697;22;21048;-80
2023/03/09 11:07:53;;;;;;;33.67;13.02;;;;;;;;;;6299704;22;20027;-80
2023/03/09 11:10:21;;;;;;;31.40;12.90;;;;;;;;;;6298897;22;20024;-81
2023/03/09 11:12:47;;;;;;;31.00;12.45;;;;;;;;;;6299522;22;20051;-82
2023/03/09 11:15:14;;;;;;;31.30;12.32;;;;;;;;;;6270971;22;20126;-79
2023/03/09 11:17:41;;;;;;;37.30;14.25;;;;;;;;;;6300122;22;20101;-80
2023/03/09 11:20:27;;;;;;;30.40;12.90;;;;;;;;;;6298886;22;20532;-82
2023/03/09 11:23:08;;;;;;;31.02;12.75;;;;;;;;;;6270511;22;20461;-85
2023/03/09 11:25:53;;;;;;;29.40;11.70;;;;;;;;;;6271941;22;20034;-81
2023/03/09 11:28:25;;;;;;;32.10;12.55;;;;;;;;;;6296752;22;20039;-81
2023/03/09 11:30:53;;;;;;;37.00;12.65;;;;;;;;;;6298581;22;20086;-81
2023/03/09 11:33:20;;;;;;;38.50;13.15;;;;;;;;;;6298830;22;20016;-80
2023/03/09 11:35:49;;;;;;;34.05;12.40;;;;;;;;;;6299972;22;20031;-80
2023/03/09 11:38:16;;;;;;;32.00;12.30;;;;;;;;;;6299543;22;20082;-79
2023/03/09 11:40:44;;;;;;;32.58;12.13;;;;;;;;;;6299988;22;20788;-82
2023/03/09 11:43:16;;;;;;;28.17;11.68;;;;;;;;;;6298815;22;20388;-80
2023/03/09 11:45:43;;;;;;;34.78;12.32;;;;;;;;;;6271806;22;20450;-80
2023/03/09 11:48:18;;;;;;;32.70;11.57;;;;;;;;;;6299521;22;20024;-81
2023/03/09 11:51:03;;;;;;;33.22;11.60;;;;;;;;;;6271886;22;20082;-80
2023/03/09 11:53:33;;;;;;;34.30;12.82;;;;;;;;;;6271384;22;20142;-82
2023/03/09 11:56:08;;;;;;;33.27;12.30;;;;;;;;;;6299947;22;20054;-80
2023/03/09 11:58:37;;;;;;;32.75;12.43;;;;;;;;;;6299533;22;20082;-79
2023/03/09 12:01:25;;;;;;;30.13;11.77;;;;;;;;;;6298931;22;20066;-81
2023/03/09 12:03:57;;;;;;;30.42;11.80;;;;;;;;;;6298350;22;20027;-78
2023/03/09 12:06:31;;;;;;;31.73;12.32;;;;;;;;;;6299626;22;20034;-81
2023/03/09 12:09:00;;;;;;;38.33;13.13;;;;;;;;;;6272990;22;20024;-81
2023/03/09 12:11:33;;;;;;;31.90;12.07;;;;;;;;;;6301180;22;20028;-80
2023/03/09 12:14:03;;;;;;;32.90;12.47;;;;;;;;;;6298649;22;20099;-78
2023/03/09 12:16:34;;;;;;;31.30;12.63;;;;;;;;;;6301637;22;20023;-79
2023/03/09 12:19:05;;;;;;;29.20;11.73;;;;;;;;;;6300096;22;20028;-80
2023/03/09 12:21:33;;;;;;;37.47;13.40;;;;;;;;;;6298535;22;20034;-80
2023/03/09 12:24:18;;;;;;;34.30;11.77;;;;;;;;;;6296989;22;20027;-78
2023/03/09 12:26:55;;;;;;;31.60;11.98;;;;;;;;;;6299283;22;20118;-79
2023/03/09 12:29:22;;;;;;;34.05;11.75;;;;;;;;;;6300828;22;20027;-79
2023/03/09 12:32:07;;;;;;;33.72;12.23;;;;;;;;;;6301645;22;20023;-80
2023/03/09 12:34:40;;;;;;;33.70;13.00;;;;;;;;;;6299711;22;20019;-79
2023/03/09 12:37:25;;;;;;;33.67;12.43;;;;;;;;;;6298562;22;20024;-78
2023/03/09 12:40:12;;;;;;;28.10;11.30;;;;;;;;;;6300592;22;20057;-79
2023/03/09 12:42:39;;;;;;;31.85;12.15;;;;;;;;;;6281358;22;20020;-79
2023/03/09 12:45:14;;;;;;;33.30;12.98;;;;;;;;;;6271677;22;20529;-79
2023/03/09 12:47:42;;;;;;;35.08;12.68;;;;;;;;;;6272343;22;20077;-78
2023/03/09 12:50:35;;;;;;;31.17;12.45;;;;;;;;;;6299394;22;20372;-79
2023/03/09 12:53:04;;;;;;;29.35;11.77;;;;;;;;;;6262621;22;20039;-77
2023/03/09 12:55:37;;;;;;;32.47;12.35;;;;;;;;;;6300146;22;20062;-79
2023/03/09 12:58:21;;;;;;;32.92;12.18;;;;;;;;;;6300305;22;20023;-79
2023/03/09 13:00:54;;;;;;;35.17;12.27;;;;;;;;;;6272316;22;20082;-77
2023/03/09 13:03:31;;;;;;;33.45;12.90;;;;;;;;;;6270981;22;20980;-79
2023/03/09 13:06:03;;;;;;;32.03;13.00;;;;;;;;;;6300150;22;20035;-78
2023/03/09 13:08:32;;;;;;;31.42;11.98;;;;;;;;;;6298734;22;20028;-78
2023/03/09 13:11:17;;;;;;;31.70;12.13;;;;;;;;;;6299256;22;20028;-77
2023/03/09 13:13:45;;;;;;;32.65;13.05;;;;;;;;;;6298409;22;20051;-79
2023/03/09 13:16:30;;;;;;;31.10;12.65;;;;;;;;;;6300118;22;20130;-79
2023/03/09 13:19:16;;;;;;;32.65;12.77;;;;;;;;;;6299954;22;20057;-79
2023/03/09 13:21:47;;;;;;;32.38;12.00;;;;;;;;;;6272528;22;20062;-78
2023/03/09 13:24:28;;;;;;;31.85;11.20;;;;;;;;;;6297550;22;20032;-79
2023/03/09 13:26:56;;;;;;;32.10;11.98;;;;;;;;;;6299915;22;20031;-78
2023/03/09 13:29:24;;;;;;;34.30;12.13;;;;;;;;;;6299125;22;20081;-79
2023/03/09 13:31:50;;;;;;;30.55;11.30;;;;;;;;;;6299623;22;20114;-79
2023/03/09 13:34:32;;;;;;;27.97;11.47;;;;;;;;;;6297792;22;20024;-80
2023/03/09 13:37:04;;;;;;;29.92;11.63;;;;;;;;;;6299576;22;20100;-77
2023/03/09 13:39:35;;;;;;;31.27;11.75;;;;;;;;;;6300199;22;20912;-78
2023/03/09 13:42:05;;;;;;;24.50;10.45;;;;;;;;;;6299529;22;20019;-78
2023/03/09 13:44:31;;;;;;;27.87;9.97;;;;;;;;;;6298555;22;20063;-79
2023/03/09 13:46:58;;;;;;;32.15;10.75;;;;;;;;;;6299490;22;20020;-79
2023/03/09 13:49:30;;;;;;;26.83;11.05;;;;;;;;;;6272135;22;20032;-78
2023/03/09 13:51:56;;;;;;;;;;;;;;;;;;6272914;22;20034;-79
2023/03/09 13:54:32;;;;;;;27.25;10.55;;;;;;;;;;6297550;22;45679;-78
2023/03/09 13:57:03;;;;;;;28.45;10.73;;;;;;;;;;6300102;22;20073;-79
2023/03/09 13:59:49;;;;;;;27.10;10.25;;;;;;;;;;6299221;22;20024;-78
2023/03/09 14:02:16;;;;;;;25.48;9.63;;;;;;;;;;6273201;22;20112;-79
2023/03/09 14:04:45;;;;;;;24.70;9.50;;;;;;;;;;6297803;22;20024;-78
2023/03/09 14:07:16;;;;;;;26.20;9.68;;;;;;;;;;6298312;22;20107;-79
2023/03/09 14:09:49;;;;;;;25.33;9.60;;;;;;;;;;6299389;22;20031;-78
2023/03/09 14:12:45;;;;;;;23.70;9.80;;;;;;;;;;6299570;22;20019;-78
2023/03/09 14:15:15;;;;;;;28.30;9.70;;;;;;;;;;6285230;22;20094;-78
2023/03/09 14:17:41;;;;;;;25.83;10.07;;;;;;;;;;6299428;22;20023;-78
2023/03/09 14:20:19;;;;;;;26.73;9.88;;;;;;;;;;6300082;22;20024;-79
2023/03/09 14:22:45;;;;;;;25.92;10.05;;;;;;;;;;6299276;22;20031;-79
2023/03/09 14:25:21;;;;;;;31.20;10.40;;;;;;;;;;6299561;22;20142;-78
2023/03/09 14:27:47;;;;;;;25.67;9.55;;;;;;;;;;6298319;22;20107;-79
2023/03/09 14:30:27;;;;;;;29.95;10.60;;;;;;;;;;6300737;22;20619;-78